Time;durP1;ratioP1;P1;durP2;ratioP2;P2;SDS_P1;SDS_P2;PMS_P1;PMS_P2;Temp;Humidity;BMP_temperature;BMP_pressure;BME280_temperature;BME280_humidity;BME280_pressure;Samples;Min_cycle;Max_cycle;Signal;HPM_P1;HPM_P2
2022/04/13 00:00:05;;;;;;;7.13;5.77;;;;;;;;;;5044232;28;20215;-73
2022/04/13 00:02:34;;;;;;;6.07;5.47;;;;;;;;;;5032785;28;20210;-73
2022/04/13 00:05:03;;;;;;;6.13;5.30;;;;;;;;;;5038814;28;20214;-72
2022/04/13 00:07:32;;;;;;;5.33;4.83;;;;;;;;;;5030518;28;20232;-73
2022/04/13 00:10:01;;;;;;;6.23;5.13;;;;;;;;;;5042497;28;20207;-73
2022/04/13 00:12:29;;;;;;;6.10;5.50;;;;;;;;;;5042729;28;20200;-73
2022/04/13 00:14:57;;;;;;;7.37;5.70;;;;;;;;;;5037151;28;20281;-73
2022/04/13 00:17:26;;;;;;;5.53;5.03;;;;;;;;;;5022914;28;20267;-73
2022/04/13 00:19:54;;;;;;;5.97;5.23;;;;;;;;;;5032208;28;20586;-73
2022/04/13 00:22:23;;;;;;;5.73;5.13;;;;;;;;;;5033042;28;20608;-73
2022/04/13 00:24:52;;;;;;;6.23;5.30;;;;;;;;;;5042152;28;20277;-73
2022/04/13 00:27:21;;;;;;;6.47;5.40;;;;;;;;;;5030472;28;20227;-74
2022/04/13 00:29:49;;;;;;;5.67;5.17;;;;;;;;;;5038878;28;20265;-74
2022/04/13 00:32:17;;;;;;;5.73;5.20;;;;;;;;;;5046287;28;20675;-73
2022/04/13 00:34:46;;;;;;;5.67;4.97;;;;;;;;;;5044028;28;20211;-73
2022/04/13 00:37:14;;;;;;;5.93;4.80;;;;;;;;;;5042075;28;20224;-73
2022/04/13 00:39:43;;;;;;;6.07;5.17;;;;;;;;;;5044519;28;20202;-73
2022/04/13 00:42:13;;;;;;;5.10;4.60;;;;;;;;;;5028494;28;20220;-73
2022/04/13 00:44:41;;;;;;;4.93;4.43;;;;;;;;;;5046836;28;20214;-73
2022/04/13 00:47:10;;;;;;;5.50;5.00;;;;;;;;;;5032667;28;20278;-73
2022/04/13 00:49:39;;;;;;;5.77;5.23;;;;;;;;;;5036761;28;20254;-73
2022/04/13 00:52:08;;;;;;;4.90;4.40;;;;;;;;;;5041154;28;20200;-73
2022/04/13 00:54:36;;;;;;;6.27;4.90;;;;;;;;;;5045280;28;20620;-72
2022/04/13 00:57:09;;;;;;;5.10;4.60;;;;;;;;;;5030770;28;20224;-73
2022/04/13 00:59:39;;;;;;;5.30;4.80;;;;;;;;;;5044287;28;20290;-73
2022/04/13 01:02:08;;;;;;;5.43;4.90;;;;;;;;;;5035771;28;20206;-73
2022/04/13 01:04:37;;;;;;;6.30;4.40;;;;;;;;;;5041032;28;20211;-73
2022/04/13 01:07:08;;;;;;;5.23;4.67;;;;;;;;;;5034577;28;20698;-73
2022/04/13 01:09:37;;;;;;;6.30;5.27;;;;;;;;;;5043012;28;20680;-73
2022/04/13 01:12:06;;;;;;;5.43;4.93;;;;;;;;;;5033093;28;20205;-74
2022/04/13 01:14:35;;;;;;;5.37;4.83;;;;;;;;;;5038925;28;20207;-73
2022/04/13 01:17:05;;;;;;;6.93;5.30;;;;;;;;;;5039818;28;20212;-73
2022/04/13 01:19:34;;;;;;;4.70;4.30;;;;;;;;;;5042539;28;20317;-73
2022/04/13 01:22:14;;;;;;;5.00;4.60;;;;;;;;;;5049549;28;20601;-73
2022/04/13 01:24:42;;;;;;;5.73;4.30;;;;;;;;;;5039571;28;20212;-73
2022/04/13 01:27:11;;;;;;;5.33;4.70;;;;;;;;;;5031932;28;20233;-73
2022/04/13 01:29:40;;;;;;;5.73;4.27;;;;;;;;;;5033279;28;20576;-73
2022/04/13 01:32:09;;;;;;;5.33;4.27;;;;;;;;;;5021650;28;20616;-73
2022/04/13 01:34:38;;;;;;;4.57;3.67;;;;;;;;;;5040433;28;20547;-73
2022/04/13 01:37:06;;;;;;;4.30;3.90;;;;;;;;;;5035297;28;20231;-73
2022/04/13 01:39:36;;;;;;;4.57;4.17;;;;;;;;;;5043536;28;20203;-73
2022/04/13 01:42:05;;;;;;;4.70;4.20;;;;;;;;;;5037337;28;20203;-73
2022/04/13 01:44:33;;;;;;;5.27;4.30;;;;;;;;;;5046832;28;20301;-72
2022/04/13 01:47:02;;;;;;;5.13;4.63;;;;;;;;;;5039949;28;20275;-73
2022/04/13 01:49:30;;;;;;;4.57;4.10;;;;;;;;;;5036664;28;20207;-73
2022/04/13 01:51:58;;;;;;;4.13;3.60;;;;;;;;;;5035773;28;20643;-73
2022/04/13 01:54:27;;;;;;;3.90;3.00;;;;;;;;;;5049438;28;20203;-73
2022/04/13 01:56:57;;;;;;;3.17;2.87;;;;;;;;;;5041571;28;20238;-72
2022/04/13 01:59:25;;;;;;;4.17;3.53;;;;;;;;;;5043351;28;20203;-73
2022/04/13 02:01:53;;;;;;;3.90;3.30;;;;;;;;;;5037708;28;20208;-73
2022/04/13 02:04:23;;;;;;;3.47;3.17;;;;;;;;;;5037397;28;20204;-73
2022/04/13 02:06:51;;;;;;;3.67;3.37;;;;;;;;;;5033668;28;20224;-73
2022/04/13 02:09:20;;;;;;;5.43;3.07;;;;;;;;;;5036135;28;20283;-73
2022/04/13 02:11:48;;;;;;;3.37;2.80;;;;;;;;;;5035699;28;20215;-73
2022/04/13 02:14:18;;;;;;;3.33;2.70;;;;;;;;;;5048031;28;20207;-73
2022/04/13 02:16:47;;;;;;;4.17;3.10;;;;;;;;;;5043662;28;20305;-73
2022/04/13 02:19:16;;;;;;;3.40;3.10;;;;;;;;;;5040699;28;20673;-73
2022/04/13 02:21:44;;;;;;;3.40;3.10;;;;;;;;;;5040360;28;20203;-73
2022/04/13 02:24:14;;;;;;;4.53;3.13;;;;;;;;;;5043385;28;20218;-73
2022/04/13 02:26:42;;;;;;;3.40;2.50;;;;;;;;;;5036703;28;20256;-73
2022/04/13 02:29:11;;;;;;;4.37;2.50;;;;;;;;;;5037883;28;20223;-73
2022/04/13 02:31:41;;;;;;;3.70;2.83;;;;;;;;;;5031943;28;20204;-73
2022/04/13 02:34:10;;;;;;;4.00;2.80;;;;;;;;;;5034067;28;20203;-73
2022/04/13 02:36:38;;;;;;;4.57;2.30;;;;;;;;;;5037343;28;20232;-73
2022/04/13 02:39:06;;;;;;;3.70;2.70;;;;;;;;;;5043315;28;20210;-73
2022/04/13 02:41:35;;;;;;;3.97;2.90;;;;;;;;;;5045268;28;20207;-73
2022/04/13 02:44:03;;;;;;;3.77;2.50;;;;;;;;;;5033665;28;20203;-73
2022/04/13 02:46:32;;;;;;;3.47;2.50;;;;;;;;;;5040432;28;20211;-73
2022/04/13 02:49:02;;;;;;;3.53;2.80;;;;;;;;;;5040230;28;20570;-73
2022/04/13 02:51:30;;;;;;;3.17;2.40;;;;;;;;;;5039351;28;20249;-73
2022/04/13 02:53:58;;;;;;;2.50;2.30;;;;;;;;;;5040076;28;20247;-73
2022/04/13 02:56:27;;;;;;;3.40;2.37;;;;;;;;;;5035096;28;20265;-73
2022/04/13 02:58:55;;;;;;;2.40;2.20;;;;;;;;;;5026281;28;20246;-73
2022/04/13 03:01:24;;;;;;;2.33;2.13;;;;;;;;;;5038374;28;20223;-73
2022/04/13 03:03:52;;;;;;;3.00;2.40;;;;;;;;;;5036890;28;20208;-73
2022/04/13 03:06:22;;;;;;;2.63;2.13;;;;;;;;;;5037890;28;20214;-73
2022/04/13 03:08:50;;;;;;;4.17;2.60;;;;;;;;;;5023183;28;20873;-74
2022/04/13 03:11:19;;;;;;;3.27;2.40;;;;;;;;;;5029742;28;20200;-73
2022/04/13 03:13:47;;;;;;;2.87;2.60;;;;;;;;;;5035395;28;20207;-72
2022/04/13 03:16:16;;;;;;;3.30;2.43;;;;;;;;;;5032770;28;20199;-73
2022/04/13 03:18:44;;;;;;;3.90;2.50;;;;;;;;;;5032054;28;20211;-73
2022/04/13 03:21:13;;;;;;;4.40;2.73;;;;;;;;;;5042478;28;20220;-73
2022/04/13 03:23:45;;;;;;;4.23;2.40;;;;;;;;;;5038754;28;20210;-73
2022/04/13 03:26:13;;;;;;;2.90;2.30;;;;;;;;;;5053469;28;20211;-73
2022/04/13 03:28:42;;;;;;;4.00;2.23;;;;;;;;;;5033651;28;20266;-73
2022/04/13 03:31:10;;;;;;;3.30;2.60;;;;;;;;;;5041842;28;20204;-73
2022/04/13 03:33:38;;;;;;;3.30;2.60;;;;;;;;;;5040044;28;20660;-73
2022/04/13 03:36:07;;;;;;;2.77;2.27;;;;;;;;;;5028240;28;20217;-73
2022/04/13 03:38:36;;;;;;;3.23;2.70;;;;;;;;;;5038042;28;20219;-73
2022/04/13 03:41:05;;;;;;;3.63;2.60;;;;;;;;;;5046671;28;20200;-73
2022/04/13 03:43:34;;;;;;;4.27;2.40;;;;;;;;;;5033069;28;20207;-73
2022/04/13 03:46:03;;;;;;;2.50;2.30;;;;;;;;;;5044003;28;20196;-73
2022/04/13 03:48:35;;;;;;;2.37;2.10;;;;;;;;;;5033219;28;20638;-73
2022/04/13 03:51:03;;;;;;;4.80;2.50;;;;;;;;;;5047938;28;20234;-73
2022/04/13 03:53:32;;;;;;;2.73;2.43;;;;;;;;;;5036475;28;20203;-73
2022/04/13 03:56:00;;;;;;;3.40;2.40;;;;;;;;;;5045823;28;20207;-73
2022/04/13 03:58:30;;;;;;;2.43;2.13;;;;;;;;;;5037700;28;20226;-73
2022/04/13 04:00:58;;;;;;;2.50;2.20;;;;;;;;;;5046508;28;20289;-73
2022/04/13 04:03:27;;;;;;;3.87;2.33;;;;;;;;;;5037046;28;20322;-73
2022/04/13 04:05:55;;;;;;;3.90;2.60;;;;;;;;;;5034174;28;20199;-73
2022/04/13 04:08:26;;;;;;;2.60;2.40;;;;;;;;;;5034952;28;20234;-73
2022/04/13 04:10:54;;;;;;;3.60;2.40;;;;;;;;;;5041464;28;20246;-73
2022/04/13 04:13:22;;;;;;;2.43;2.23;;;;;;;;;;5049293;28;20208;-73
2022/04/13 04:15:52;;;;;;;4.83;2.60;;;;;;;;;;5034638;28;20783;-74
2022/04/13 04:18:21;;;;;;;3.40;2.63;;;;;;;;;;5032840;28;20258;-74
2022/04/13 04:20:49;;;;;;;3.73;2.77;;;;;;;;;;5048178;28;20203;-74
2022/04/13 04:23:18;;;;;;;3.53;2.43;;;;;;;;;;5039616;28;20211;-74
2022/04/13 04:25:46;;;;;;;3.30;3.00;;;;;;;;;;5030923;28;20201;-74
2022/04/13 04:28:15;;;;;;;4.30;2.77;;;;;;;;;;5032016;28;20223;-74
2022/04/13 04:30:43;;;;;;;3.47;2.60;;;;;;;;;;5040891;28;20207;-74
2022/04/13 04:33:14;;;;;;;3.43;2.90;;;;;;;;;;5046038;28;20642;-74
2022/04/13 04:35:42;;;;;;;3.70;2.80;;;;;;;;;;5036972;28;20211;-73
2022/04/13 04:38:11;;;;;;;3.27;2.87;;;;;;;;;;5031570;28;20221;-74
2022/04/13 04:40:39;;;;;;;3.57;2.70;;;;;;;;;;5033889;28;20284;-74
2022/04/13 04:43:07;;;;;;;5.50;2.90;;;;;;;;;;5032934;28;20325;-74
2022/04/13 04:45:36;;;;;;;3.20;2.90;;;;;;;;;;5037206;28;20204;-74
2022/04/13 04:48:05;;;;;;;4.10;3.30;;;;;;;;;;5034724;28;20272;-74
2022/04/13 04:50:35;;;;;;;3.53;2.70;;;;;;;;;;5045433;28;20227;-74
2022/04/13 04:53:03;;;;;;;4.07;2.97;;;;;;;;;;5033635;28;20641;-74
2022/04/13 04:55:32;;;;;;;3.13;2.90;;;;;;;;;;5040783;28;20542;-74
2022/04/13 04:58:02;;;;;;;3.07;2.77;;;;;;;;;;5037991;28;20230;-74
2022/04/13 05:00:35;;;;;;;4.30;3.10;;;;;;;;;;5046331;28;20210;-74
2022/04/13 05:03:03;;;;;;;4.77;3.10;;;;;;;;;;5038315;28;20202;-74
2022/04/13 05:05:35;;;;;;;4.13;2.87;;;;;;;;;;5043983;28;20616;-74
2022/04/13 05:08:03;;;;;;;4.17;3.03;;;;;;;;;;5036738;28;20273;-74
2022/04/13 05:10:31;;;;;;;3.80;3.20;;;;;;;;;;5050952;28;20230;-74
2022/04/13 05:13:02;;;;;;;3.93;3.33;;;;;;;;;;5048295;28;20204;-74
2022/04/13 05:15:31;;;;;;;4.00;2.80;;;;;;;;;;5039935;28;20214;-74
2022/04/13 05:18:00;;;;;;;5.67;3.50;;;;;;;;;;5037304;28;20258;-74
2022/04/13 05:20:28;;;;;;;3.73;3.10;;;;;;;;;;5040710;28;20621;-74
2022/04/13 05:22:58;;;;;;;4.83;3.37;;;;;;;;;;5036672;28;20301;-74
2022/04/13 05:25:27;;;;;;;4.40;3.30;;;;;;;;;;5035235;28;20204;-74
2022/04/13 05:27:55;;;;;;;5.40;3.13;;;;;;;;;;5034252;28;20236;-74
2022/04/13 05:30:24;;;;;;;7.57;3.83;;;;;;;;;;5048115;28;20460;-74
2022/04/13 05:32:56;;;;;;;11.23;6.03;;;;;;;;;;5035360;28;20207;-74
2022/04/13 05:35:25;;;;;;;15.40;6.00;;;;;;;;;;5030686;28;20218;-75
2022/04/13 05:37:54;;;;;;;12.40;4.83;;;;;;;;;;5036137;28;20224;-74
2022/04/13 05:40:24;;;;;;;6.03;4.10;;;;;;;;;;5038504;28;20265;-74
2022/04/13 05:42:53;;;;;;;6.47;3.37;;;;;;;;;;5036310;28;20217;-74
2022/04/13 05:45:22;;;;;;;5.37;3.73;;;;;;;;;;5042077;28;20669;-74
2022/04/13 05:47:50;;;;;;;6.70;3.40;;;;;;;;;;5052709;28;20234;-74
2022/04/13 05:50:18;;;;;;;7.00;3.43;;;;;;;;;;5042637;28;20709;-74
2022/04/13 05:52:47;;;;;;;5.37;3.37;;;;;;;;;;5035399;28;20205;-74
2022/04/13 05:55:15;;;;;;;4.93;3.50;;;;;;;;;;5037280;28;20202;-74
2022/04/13 05:57:45;;;;;;;4.63;3.47;;;;;;;;;;5034931;28;20236;-74
2022/04/13 06:00:14;;;;;;;7.73;3.13;;;;;;;;;;5044428;28;20277;-74
2022/04/13 06:02:43;;;;;;;6.50;3.60;;;;;;;;;;5034311;28;20274;-74
2022/04/13 06:05:12;;;;;;;4.33;3.40;;;;;;;;;;5039835;28;20203;-74
2022/04/13 06:07:41;;;;;;;3.87;3.40;;;;;;;;;;5033922;28;20250;-74
2022/04/13 06:10:10;;;;;;;6.10;3.63;;;;;;;;;;5039162;28;20313;-74
2022/04/13 06:12:39;;;;;;;4.07;3.50;;;;;;;;;;5031607;28;20218;-74
2022/04/13 06:15:09;;;;;;;4.57;3.27;;;;;;;;;;5048280;28;20199;-74
2022/04/13 06:17:38;;;;;;;3.80;3.50;;;;;;;;;;5040907;28;20227;-74
2022/04/13 06:20:08;;;;;;;5.57;3.83;;;;;;;;;;5043657;28;20260;-74
2022/04/13 06:22:38;;;;;;;6.90;3.90;;;;;;;;;;5036952;28;20612;-75
2022/04/13 06:25:07;;;;;;;6.37;4.07;;;;;;;;;;5052326;28;20211;-74
2022/04/13 06:27:36;;;;;;;5.23;4.03;;;;;;;;;;5049915;28;20224;-74
2022/04/13 06:30:05;;;;;;;4.70;3.70;;;;;;;;;;5041754;28;20221;-74
2022/04/13 06:32:35;;;;;;;4.73;3.67;;;;;;;;;;5035361;28;20287;-74
2022/04/13 06:35:04;;;;;;;5.80;3.30;;;;;;;;;;5033183;28;20639;-74
2022/04/13 06:37:38;;;;;;;5.97;3.33;;;;;;;;;;5031371;28;20323;-74
2022/04/13 06:40:08;;;;;;;5.37;3.30;;;;;;;;;;5052154;28;20203;-74
2022/04/13 06:42:40;;;;;;;4.30;3.90;;;;;;;;;;5035270;28;20655;-75
2022/04/13 06:45:09;;;;;;;6.10;4.13;;;;;;;;;;5043578;28;20207;-74
2022/04/13 06:47:39;;;;;;;6.03;3.93;;;;;;;;;;5042927;28;20277;-74
2022/04/13 06:50:11;;;;;;;5.23;3.67;;;;;;;;;;5037012;28;20228;-74
2022/04/13 06:52:41;;;;;;;6.17;3.60;;;;;;;;;;5033451;28;20540;-74
2022/04/13 06:55:10;;;;;;;3.43;3.10;;;;;;;;;;5042801;28;20273;-74
2022/04/13 06:57:39;;;;;;;3.93;3.33;;;;;;;;;;5054485;28;20713;-74
2022/04/13 07:00:08;;;;;;;3.77;3.20;;;;;;;;;;5043481;28;20204;-74
2022/04/13 07:02:39;;;;;;;5.47;3.20;;;;;;;;;;5033336;28;20207;-75
2022/04/13 07:05:27;;;;;;;3.90;3.50;;;;;;;;;;5038381;28;20618;-75
2022/04/13 07:07:56;;;;;;;6.67;3.37;;;;;;;;;;5034414;28;20277;-74
2022/04/13 07:10:26;;;;;;;6.70;3.50;;;;;;;;;;5030345;28;20223;-74
2022/04/13 07:12:54;;;;;;;4.63;3.67;;;;;;;;;;5035088;28;20200;-74
2022/04/13 07:15:24;;;;;;;4.50;3.80;;;;;;;;;;5043767;28;20208;-74
2022/04/13 07:17:54;;;;;;;5.40;3.63;;;;;;;;;;5031682;28;20220;-74
2022/04/13 07:20:22;;;;;;;4.67;3.03;;;;;;;;;;5037035;28;20202;-75
2022/04/13 07:22:52;;;;;;;6.90;3.70;;;;;;;;;;5036140;28;20204;-74
2022/04/13 07:25:21;;;;;;;3.37;3.03;;;;;;;;;;5038058;28;20231;-75
2022/04/13 07:27:50;;;;;;;5.17;2.87;;;;;;;;;;5029989;28;20220;-74
2022/04/13 07:30:20;;;;;;;7.83;3.00;;;;;;;;;;5027282;28;20219;-74
2022/04/13 07:32:52;;;;;;;5.10;3.30;;;;;;;;;;5032445;28;20200;-74
2022/04/13 07:35:23;;;;;;;5.53;2.70;;;;;;;;;;5036827;28;20203;-75
2022/04/13 07:37:53;;;;;;;4.07;2.93;;;;;;;;;;5033099;28;20230;-75
2022/04/13 07:40:22;;;;;;;4.53;2.37;;;;;;;;;;5037135;28;20282;-75
2022/04/13 07:42:51;;;;;;;6.83;2.90;;;;;;;;;;5034695;28;20199;-75
2022/04/13 07:45:20;;;;;;;2.90;2.40;;;;;;;;;;5035600;28;20267;-75
2022/04/13 07:47:50;;;;;;;3.93;2.37;;;;;;;;;;5034061;28;20733;-75
2022/04/13 07:50:23;;;;;;;5.03;2.87;;;;;;;;;;5041496;28;20230;-75
2022/04/13 07:52:52;;;;;;;5.33;2.53;;;;;;;;;;5050488;28;20218;-75
2022/04/13 07:55:20;;;;;;;5.13;2.63;;;;;;;;;;5032560;28;20203;-75
2022/04/13 07:57:49;;;;;;;8.00;2.87;;;;;;;;;;5026922;28;20223;-75
2022/04/13 08:00:18;;;;;;;4.77;2.93;;;;;;;;;;5036274;28;20604;-75
2022/04/13 08:02:47;;;;;;;5.10;2.70;;;;;;;;;;5033668;28;20230;-75
2022/04/13 08:05:16;;;;;;;4.33;2.90;;;;;;;;;;5035688;28;20643;-75
2022/04/13 08:07:46;;;;;;;4.22;2.80;;;;;;;;;;5023960;28;20251;-74
2022/04/13 08:10:15;;;;;;;3.80;2.88;;;;;;;;;;5038925;28;20203;-74
2022/04/13 08:12:46;;;;;;;4.85;3.05;;;;;;;;;;5035184;28;20208;-75
2022/04/13 08:15:15;;;;;;;3.45;2.80;;;;;;;;;;5034579;28;20639;-75
2022/04/13 08:17:44;;;;;;;3.97;2.75;;;;;;;;;;5032025;28;20250;-74
2022/04/13 08:20:14;;;;;;;6.20;2.77;;;;;;;;;;5043455;28;20212;-75
2022/04/13 08:22:43;;;;;;;4.88;2.78;;;;;;;;;;5030451;28;20558;-74
2022/04/13 08:25:14;;;;;;;5.07;3.08;;;;;;;;;;5036076;28;20282;-75
2022/04/13 08:27:44;;;;;;;3.30;2.75;;;;;;;;;;5033731;28;20389;-74
2022/04/13 08:30:13;;;;;;;3.80;3.08;;;;;;;;;;5034608;28;20226;-73
2022/04/13 08:32:42;;;;;;;4.25;3.20;;;;;;;;;;5031236;28;20218;-75
2022/04/13 08:35:11;;;;;;;5.90;3.25;;;;;;;;;;5035680;28;20211;-73
2022/04/13 08:37:40;;;;;;;5.88;3.20;;;;;;;;;;5029899;28;20709;-75
2022/04/13 08:40:12;;;;;;;4.82;3.40;;;;;;;;;;5029990;28;20203;-74
2022/04/13 08:42:46;;;;;;;5.00;3.13;;;;;;;;;;5033575;28;20200;-74
2022/04/13 08:45:20;;;;;;;5.13;4.00;;;;;;;;;;5043439;28;20203;-73
2022/04/13 08:47:50;;;;;;;6.53;3.97;;;;;;;;;;5032534;28;20322;-73
2022/04/13 08:50:19;;;;;;;7.40;4.32;;;;;;;;;;5037252;28;20204;-75
2022/04/13 08:52:52;;;;;;;4.95;4.15;;;;;;;;;;5026313;28;20721;-74
2022/04/13 08:55:22;;;;;;;5.95;4.00;;;;;;;;;;5030268;28;20195;-74
2022/04/13 08:57:56;;;;;;;4.80;3.83;;;;;;;;;;5028630;28;20227;-73
2022/04/13 09:00:27;;;;;;;4.88;4.15;;;;;;;;;;5033180;28;20203;-74
2022/04/13 09:03:14;;;;;;;5.28;3.88;;;;;;;;;;5032141;28;20208;-74
2022/04/13 09:05:50;;;;;;;6.28;3.95;;;;;;;;;;5042662;28;20654;-73
2022/04/13 09:08:19;;;;;;;7.93;4.32;;;;;;;;;;5031393;28;20230;-73
2022/04/13 09:10:48;;;;;;;5.38;4.07;;;;;;;;;;5032954;28;20216;-75
2022/04/13 09:13:20;;;;;;;5.47;3.92;;;;;;;;;;5026484;28;20200;-76
2022/04/13 09:15:50;;;;;;;8.02;3.70;;;;;;;;;;5032142;28;20192;-75
2022/04/13 09:18:18;;;;;;;7.50;4.30;;;;;;;;;;5021745;28;20231;-73
2022/04/13 09:20:47;;;;;;;7.07;3.95;;;;;;;;;;5021413;28;20220;-74
2022/04/13 09:23:17;;;;;;;6.38;4.30;;;;;;;;;;5029876;28;20211;-74
2022/04/13 09:25:46;;;;;;;4.90;3.70;;;;;;;;;;5023385;28;20203;-75
2022/04/13 09:28:14;;;;;;;5.88;4.18;;;;;;;;;;5031895;28;20242;-74
2022/04/13 09:30:44;;;;;;;8.05;4.28;;;;;;;;;;5040166;28;20207;-74
2022/04/13 09:33:12;;;;;;;5.93;4.20;;;;;;;;;;5029317;28;20199;-75
2022/04/13 09:35:41;;;;;;;6.75;4.18;;;;;;;;;;5035587;28;20235;-74
2022/04/13 09:38:09;;;;;;;4.90;3.92;;;;;;;;;;5033064;28;20227;-74
2022/04/13 09:41:02;;;;;;;7.03;4.13;;;;;;;;;;4700397;22;10001993;-74
2022/04/13 09:43:30;;;;;;;7.68;4.22;;;;;;;;;;5033916;28;20211;-74
2022/04/13 09:46:00;;;;;;;7.95;4.50;;;;;;;;;;5032736;28;20628;-74
2022/04/13 09:48:30;;;;;;;4.93;3.63;;;;;;;;;;5049580;28;20231;-75
2022/04/13 09:51:00;;;;;;;6.88;4.13;;;;;;;;;;5051039;28;20214;-74
2022/04/13 09:53:28;;;;;;;7.60;3.95;;;;;;;;;;5049377;28;20203;-75
2022/04/13 09:55:59;;;;;;;8.15;4.30;;;;;;;;;;5043619;28;20207;-74
2022/04/13 09:58:30;;;;;;;7.50;4.32;;;;;;;;;;5041888;28;20234;-75
2022/04/13 10:01:06;;;;;;;5.82;3.90;;;;;;;;;;5052255;28;20274;-75
2022/04/13 10:03:34;;;;;;;6.45;3.90;;;;;;;;;;5051409;28;20618;-75
2022/04/13 10:06:04;;;;;;;7.25;4.05;;;;;;;;;;5042493;28;20203;-74
2022/04/13 10:08:33;;;;;;;7.00;4.22;;;;;;;;;;5035836;28;20238;-75
2022/04/13 10:11:02;;;;;;;5.80;3.88;;;;;;;;;;5047566;28;20253;-74
2022/04/13 10:13:34;;;;;;;7.05;4.15;;;;;;;;;;5043079;28;20231;-74
2022/04/13 10:16:04;;;;;;;6.18;3.88;;;;;;;;;;5051365;28;20260;-74
2022/04/13 10:18:48;;;;;;;8.15;4.03;;;;;;;;;;5051339;28;20314;-74
2022/04/13 10:21:31;;;;;;;7.13;4.20;;;;;;;;;;5031823;28;20211;-74
2022/04/13 10:24:05;;;;;;;9.00;4.22;;;;;;;;;;5042371;28;20199;-74
2022/04/13 10:26:34;;;;;;;5.45;3.75;;;;;;;;;;5052583;28;20207;-75
2022/04/13 10:29:03;;;;;;;9.52;4.10;;;;;;;;;;5051431;28;20204;-74
2022/04/13 10:31:33;;;;;;;8.68;3.85;;;;;;;;;;5052155;28;20306;-74
2022/04/13 10:34:02;;;;;;;4.82;3.70;;;;;;;;;;5052255;28;20203;-74
2022/04/13 10:36:30;;;;;;;7.10;4.10;;;;;;;;;;5052383;28;20622;-75
2022/04/13 10:39:00;;;;;;;7.93;4.20;;;;;;;;;;5051063;28;21110;-74
2022/04/13 10:41:29;;;;;;;10.02;4.40;;;;;;;;;;5051359;28;20203;-74
2022/04/13 10:43:59;;;;;;;7.95;4.35;;;;;;;;;;5049499;28;20210;-74
2022/04/13 10:46:28;;;;;;;6.72;4.00;;;;;;;;;;5050851;28;20218;-73
2022/04/13 10:49:01;;;;;;;7.70;4.70;;;;;;;;;;5051199;28;20654;-74
2022/04/13 10:51:31;;;;;;;6.68;4.18;;;;;;;;;;5049132;28;20265;-74
2022/04/13 10:54:07;;;;;;;7.40;4.20;;;;;;;;;;5050606;28;20206;-74
2022/04/13 10:56:36;;;;;;;8.00;4.40;;;;;;;;;;5050958;28;20230;-74
2022/04/13 10:59:08;;;;;;;11.07;5.10;;;;;;;;;;5051451;28;20206;-74
2022/04/13 11:01:39;;;;;;;5.70;4.28;;;;;;;;;;5048854;28;20253;-75
2022/04/13 11:04:09;;;;;;;8.23;3.78;;;;;;;;;;5050712;28;20207;-74
2022/04/13 11:06:40;;;;;;;6.25;3.80;;;;;;;;;;5051683;28;20689;-74
2022/04/13 11:09:10;;;;;;;5.47;3.90;;;;;;;;;;5051272;28;20210;-74
2022/04/13 11:11:40;;;;;;;14.85;4.32;;;;;;;;;;5047641;28;20211;-74
2022/04/13 11:14:19;;;;;;;11.60;4.30;;;;;;;;;;5051315;28;20203;-74
2022/04/13 11:16:48;;;;;;;7.70;4.15;;;;;;;;;;5037085;28;20233;-74
2022/04/13 11:19:22;;;;;;;10.35;4.40;;;;;;;;;;5043918;28;20207;-74
2022/04/13 11:22:08;;;;;;;7.75;4.18;;;;;;;;;;5045400;28;20200;-75
2022/04/13 11:24:37;;;;;;;12.43;4.25;;;;;;;;;;5035576;28;20207;-74
2022/04/13 11:27:06;;;;;;;7.70;4.60;;;;;;;;;;5046543;28;20228;-74
2022/04/13 11:29:42;;;;;;;8.00;4.70;;;;;;;;;;5050442;28;20290;-74
2022/04/13 11:32:15;;;;;;;8.07;4.55;;;;;;;;;;5046893;28;20285;-74
2022/04/13 11:34:46;;;;;;;6.38;3.10;;;;;;;;;;5039525;28;20207;-74
2022/04/13 11:37:15;;;;;;;10.90;3.55;;;;;;;;;;5046799;28;20227;-74
2022/04/13 11:39:47;;;;;;;7.70;3.88;;;;;;;;;;5038915;28;20215;-74
2022/04/13 11:42:17;;;;;;;7.05;3.90;;;;;;;;;;5048467;28;20569;-74
2022/04/13 11:44:49;;;;;;;7.97;4.00;;;;;;;;;;5040334;28;20872;-74
2022/04/13 11:47:18;;;;;;;8.85;4.00;;;;;;;;;;5048679;28;20231;-74
2022/04/13 11:49:57;;;;;;;8.57;3.97;;;;;;;;;;5049158;28;20207;-74
2022/04/13 11:52:42;;;;;;;10.32;3.72;;;;;;;;;;5043992;28;20210;-74
2022/04/13 11:55:17;;;;;;;7.88;3.88;;;;;;;;;;5051924;28;20203;-75
2022/04/13 11:58:02;;;;;;;7.28;3.67;;;;;;;;;;5052506;28;20226;-74
2022/04/13 12:00:37;;;;;;;6.75;3.03;;;;;;;;;;5051698;28;20198;-73
2022/04/13 12:03:07;;;;;;;9.00;3.13;;;;;;;;;;5044778;28;20210;-75
2022/04/13 12:05:39;;;;;;;9.25;3.13;;;;;;;;;;5049185;28;20214;-74
2022/04/13 12:08:11;;;;;;;8.02;2.90;;;;;;;;;;5039919;28;20223;-74
2022/04/13 12:10:40;;;;;;;7.85;3.20;;;;;;;;;;5046873;28;20968;-75
2022/04/13 12:13:12;;;;;;;8.35;2.92;;;;;;;;;;5046206;28;20215;-74
2022/04/13 12:15:45;;;;;;;8.77;3.20;;;;;;;;;;5052338;28;20203;-74
2022/04/13 12:18:14;;;;;;;7.50;3.00;;;;;;;;;;5037577;28;20218;-74
2022/04/13 12:20:45;;;;;;;6.90;2.88;;;;;;;;;;5047605;28;20207;-74
2022/04/13 12:23:17;;;;;;;9.00;3.38;;;;;;;;;;5045596;28;20618;-75
2022/04/13 12:25:47;;;;;;;7.15;2.90;;;;;;;;;;5047429;28;20203;-75
2022/04/13 12:28:16;;;;;;;4.90;3.28;;;;;;;;;;5045376;28;20229;-74
2022/04/13 12:30:45;;;;;;;6.63;3.15;;;;;;;;;;5043776;28;20207;-74
2022/04/13 12:33:15;;;;;;;7.32;2.85;;;;;;;;;;5048252;28;20565;-75
2022/04/13 12:35:49;;;;;;;8.52;3.20;;;;;;;;;;5040667;28;20212;-75
2022/04/13 12:38:25;;;;;;;9.73;3.30;;;;;;;;;;5037177;28;20690;-75
2022/04/13 12:41:07;;;;;;;8.63;3.00;;;;;;;;;;5045065;28;20202;-75
2022/04/13 12:43:39;;;;;;;12.27;3.30;;;;;;;;;;5047761;28;20199;-74
2022/04/13 12:46:14;;;;;;;7.35;3.63;;;;;;;;;;5047808;28;20198;-75
2022/04/13 12:48:44;;;;;;;7.85;3.58;;;;;;;;;;5047587;28;20237;-75
2022/04/13 12:51:15;;;;;;;8.48;3.53;;;;;;;;;;5048732;28;20191;-75
2022/04/13 12:53:51;;;;;;;12.85;3.83;;;;;;;;;;5039144;28;20278;-74
2022/04/13 12:56:22;;;;;;;8.00;3.53;;;;;;;;;;5048162;28;20207;-74
2022/04/13 12:58:50;;;;;;;7.13;3.65;;;;;;;;;;5049184;28;20199;-75
2022/04/13 13:01:29;;;;;;;6.95;3.30;;;;;;;;;;5036393;28;20199;-74
2022/04/13 13:04:00;;;;;;;8.45;3.42;;;;;;;;;;5035078;28;20274;-74
2022/04/13 13:06:37;;;;;;;7.15;3.58;;;;;;;;;;5041102;28;20199;-74
2022/04/13 13:09:44;;;;;;;7.35;3.50;;;;;;;;;;5049907;28;20567;-75
2022/04/13 13:12:15;;;;;;;8.30;3.33;;;;;;;;;;5042125;28;20213;-75
2022/04/13 13:14:44;;;;;;;8.63;3.08;;;;;;;;;;5042709;28;20912;-75
2022/04/13 13:17:16;;;;;;;6.38;3.65;;;;;;;;;;5049877;28;20249;-75
2022/04/13 13:19:46;;;;;;;9.02;4.07;;;;;;;;;;5046552;28;20210;-75
2022/04/13 13:22:23;;;;;;;11.68;4.63;;;;;;;;;;5045293;28;20673;-75
2022/04/13 13:24:58;;;;;;;9.82;4.78;;;;;;;;;;5050076;28;20231;-75
2022/04/13 13:27:28;;;;;;;8.88;4.63;;;;;;;;;;5053766;28;20253;-75
2022/04/13 13:30:19;;;;;;;10.07;4.50;;;;;;;;;;5051156;28;20203;-75
2022/04/13 13:32:58;;;;;;;12.70;4.70;;;;;;;;;;5054970;28;20211;-76
2022/04/13 13:35:29;;;;;;;9.07;4.63;;;;;;;;;;5049530;28;20202;-76
2022/04/13 13:38:05;;;;;;;9.13;4.82;;;;;;;;;;5050165;28;20214;-75
2022/04/13 13:40:41;;;;;;;11.00;5.10;;;;;;;;;;5048430;28;20272;-75
2022/04/13 13:43:10;;;;;;;7.93;4.38;;;;;;;;;;5049468;28;20642;-75
2022/04/13 13:45:39;;;;;;;8.27;4.78;;;;;;;;;;5055818;28;20207;-75
2022/04/13 13:48:09;;;;;;;7.40;4.63;;;;;;;;;;5048670;28;20234;-75
2022/04/13 13:50:38;;;;;;;9.27;4.60;;;;;;;;;;5054010;28;20211;-76
2022/04/13 13:53:08;;;;;;;9.85;5.15;;;;;;;;;;5053874;28;20207;-75
2022/04/13 13:55:37;;;;;;;8.20;4.80;;;;;;;;;;5051048;28;20215;-75
2022/04/13 13:58:06;;;;;;;10.40;5.00;;;;;;;;;;5046664;28;20227;-75
2022/04/13 14:00:38;;;;;;;9.77;5.20;;;;;;;;;;5047050;28;20203;-75
2022/04/13 14:03:07;;;;;;;8.55;5.00;;;;;;;;;;5054234;28;20210;-75
2022/04/13 14:05:36;;;;;;;11.23;5.20;;;;;;;;;;5039353;28;20200;-74
2022/04/13 14:08:05;;;;;;;9.23;4.82;;;;;;;;;;5047109;28;20716;-75
2022/04/13 14:10:36;;;;;;;9.23;5.00;;;;;;;;;;5051754;28;20249;-75
2022/04/13 14:13:05;;;;;;;8.98;5.10;;;;;;;;;;5056972;28;20210;-75
2022/04/13 14:15:37;;;;;;;9.73;5.20;;;;;;;;;;5048550;28;20294;-74
2022/04/13 14:18:08;;;;;;;8.63;4.93;;;;;;;;;;5049108;28;20225;-75
2022/04/13 14:20:36;;;;;;;11.63;5.40;;;;;;;;;;5048909;28;20599;-75
2022/04/13 14:23:05;;;;;;;12.82;5.78;;;;;;;;;;5050824;28;20195;-75
2022/04/13 14:25:36;;;;;;;12.70;6.07;;;;;;;;;;5040904;28;20203;-75
2022/04/13 14:28:29;;;;;;;10.32;5.68;;;;;;;;;;5049702;28;20717;-75
2022/04/13 14:30:58;;;;;;;9.13;5.38;;;;;;;;;;5052701;28;20559;-75
2022/04/13 14:33:28;;;;;;;12.10;4.80;;;;;;;;;;5048117;28;20204;-75
2022/04/13 14:35:57;;;;;;;9.10;4.90;;;;;;;;;;5048612;28;20238;-75
2022/04/13 14:38:28;;;;;;;10.02;4.68;;;;;;;;;;5048617;28;20697;-74
2022/04/13 14:41:02;;;;;;;10.55;4.93;;;;;;;;;;5052072;28;20265;-74
2022/04/13 14:43:32;;;;;;;9.95;4.50;;;;;;;;;;5053550;28;20290;-74
2022/04/13 14:46:02;;;;;;;9.25;4.60;;;;;;;;;;5047602;28;20644;-73
2022/04/13 14:48:30;;;;;;;9.75;4.93;;;;;;;;;;5053955;28;20309;-74
2022/04/13 14:50:59;;;;;;;9.80;4.63;;;;;;;;;;5040320;28;20196;-74
2022/04/13 14:53:28;;;;;;;9.50;5.03;;;;;;;;;;5049757;28;20199;-75
2022/04/13 14:55:56;;;;;;;11.52;5.43;;;;;;;;;;5043895;28;20280;-75
2022/04/13 14:58:26;;;;;;;10.55;5.78;;;;;;;;;;5050842;28;20572;-74